sensor_id;sensor_type;location;lat;lon;timestamp;P1;durP1;ratioP1;P2;durP2;ratioP2
12224;SDS011;6175;50.956;11.064;2023-03-26T00:00:40;4.28;;;1.65;;
12224;SDS011;6175;50.956;11.064;2023-03-26T00:03:09;1.90;;;1.42;;
12224;SDS011;6175;50.956;11.064;2023-03-26T00:05:37;3.95;;;1.65;;
12224;SDS011;6175;50.956;11.064;2023-03-26T00:08:04;2.40;;;1.38;;
12224;SDS011;6175;50.956;11.064;2023-03-26T00:10:33;1.88;;;1.48;;
12224;SDS011;6175;50.956;11.064;2023-03-26T00:13:02;1.73;;;1.42;;
12224;SDS011;6175;50.956;11.064;2023-03-26T00:15:29;1.70;;;1.25;;
12224;SDS011;6175;50.956;11.064;2023-03-26T00:17:56;2.28;;;1.40;;
12224;SDS011;6175;50.956;11.064;2023-03-26T00:20:24;3.20;;;1.45;;
12224;SDS011;6175;50.956;11.064;2023-03-26T00:22:52;2.15;;;1.50;;
12224;SDS011;6175;50.956;11.064;2023-03-26T00:25:20;1.77;;;1.45;;
12224;SDS011;6175;50.956;11.064;2023-03-26T00:27:51;4.03;;;1.35;;
12224;SDS011;6175;50.956;11.064;2023-03-26T00:30:20;3.03;;;1.80;;
12224;SDS011;6175;50.956;11.064;2023-03-26T00:32:47;2.28;;;1.50;;
12224;SDS011;6175;50.956;11.064;2023-03-26T00:35:14;2.67;;;1.40;;
12224;SDS011;6175;50.956;11.064;2023-03-26T00:37:42;1.98;;;1.88;;
12224;SDS011;6175;50.956;11.064;2023-03-26T00:40:10;2.35;;;1.77;;
12224;SDS011;6175;50.956;11.064;2023-03-26T00:42:37;4.82;;;1.80;;
12224;SDS011;6175;50.956;11.064;2023-03-26T00:45:04;3.60;;;1.73;;
12224;SDS011;6175;50.956;11.064;2023-03-26T00:47:33;5.40;;;1.75;;
12224;SDS011;6175;50.956;11.064;2023-03-26T00:50:01;3.38;;;1.85;;
12224;SDS011;6175;50.956;11.064;2023-03-26T00:52:28;3.25;;;1.85;;
12224;SDS011;6175;50.956;11.064;2023-03-26T00:54:55;3.75;;;1.98;;
12224;SDS011;6175;50.956;11.064;2023-03-26T00:57:22;2.25;;;1.65;;
12224;SDS011;6175;50.956;11.064;2023-03-26T00:59:54;2.72;;;1.70;;
12224;SDS011;6175;50.956;11.064;2023-03-26T01:02:21;2.00;;;1.80;;
12224;SDS011;6175;50.956;11.064;2023-03-26T01:04:53;4.88;;;1.80;;
12224;SDS011;6175;50.956;11.064;2023-03-26T01:07:26;3.88;;;2.00;;
12224;SDS011;6175;50.956;11.064;2023-03-26T01:09:54;6.68;;;2.35;;
12224;SDS011;6175;50.956;11.064;2023-03-26T01:12:23;2.17;;;1.65;;
12224;SDS011;6175;50.956;11.064;2023-03-26T01:14:56;5.20;;;1.83;;
12224;SDS011;6175;50.956;11.064;2023-03-26T01:17:25;3.25;;;1.60;;
12224;SDS011;6175;50.956;11.064;2023-03-26T01:19:59;4.55;;;2.00;;
12224;SDS011;6175;50.956;11.064;2023-03-26T01:22:37;7.07;;;2.17;;
12224;SDS011;6175;50.956;11.064;2023-03-26T01:25:07;3.55;;;1.88;;
12224;SDS011;6175;50.956;11.064;2023-03-26T01:27:34;3.20;;;1.77;;
12224;SDS011;6175;50.956;11.064;2023-03-26T01:30:07;3.88;;;2.10;;
12224;SDS011;6175;50.956;11.064;2023-03-26T01:32:41;3.75;;;1.67;;
12224;SDS011;6175;50.956;11.064;2023-03-26T01:35:21;4.95;;;1.80;;
12224;SDS011;6175;50.956;11.064;2023-03-26T01:38:04;4.03;;;1.95;;
12224;SDS011;6175;50.956;11.064;2023-03-26T01:40:41;4.78;;;1.75;;
12224;SDS011;6175;50.956;11.064;2023-03-26T01:43:16;5.95;;;1.85;;
12224;SDS011;6175;50.956;11.064;2023-03-26T01:45:49;3.35;;;1.92;;
12224;SDS011;6175;50.956;11.064;2023-03-26T01:48:17;3.85;;;2.05;;
12224;SDS011;6175;50.956;11.064;2023-03-26T01:50:44;5.80;;;1.90;;
12224;SDS011;6175;50.956;11.064;2023-03-26T01:53:12;4.40;;;2.00;;
12224;SDS011;6175;50.956;11.064;2023-03-26T01:55:45;3.00;;;1.80;;
12224;SDS011;6175;50.956;11.064;2023-03-26T01:58:21;3.38;;;2.00;;
12224;SDS011;6175;50.956;11.064;2023-03-26T02:00:56;3.10;;;1.98;;
12224;SDS011;6175;50.956;11.064;2023-03-26T02:03:30;2.65;;;1.67;;
12224;SDS011;6175;50.956;11.064;2023-03-26T02:06:03;5.13;;;2.10;;
12224;SDS011;6175;50.956;11.064;2023-03-26T02:08:34;3.65;;;2.55;;
12224;SDS011;6175;50.956;11.064;2023-03-26T02:11:08;2.47;;;1.80;;
12224;SDS011;6175;50.956;11.064;2023-03-26T02:13:38;4.38;;;2.22;;
12224;SDS011;6175;50.956;11.064;2023-03-26T02:16:07;2.88;;;2.05;;
12224;SDS011;6175;50.956;11.064;2023-03-26T02:18:35;2.85;;;2.05;;
12224;SDS011;6175;50.956;11.064;2023-03-26T02:21:07;4.97;;;1.90;;
12224;SDS011;6175;50.956;11.064;2023-03-26T02:23:36;4.13;;;2.17;;
12224;SDS011;6175;50.956;11.064;2023-03-26T02:26:04;5.68;;;2.10;;
12224;SDS011;6175;50.956;11.064;2023-03-26T02:28:33;3.20;;;2.05;;
12224;SDS011;6175;50.956;11.064;2023-03-26T02:31:00;5.35;;;2.17;;
12224;SDS011;6175;50.956;11.064;2023-03-26T02:33:28;3.83;;;2.03;;
12224;SDS011;6175;50.956;11.064;2023-03-26T02:35:56;4.55;;;2.33;;
12224;SDS011;6175;50.956;11.064;2023-03-26T02:38:25;2.70;;;1.83;;
12224;SDS011;6175;50.956;11.064;2023-03-26T02:40:53;2.90;;;1.83;;
12224;SDS011;6175;50.956;11.064;2023-03-26T02:43:20;3.67;;;2.10;;
12224;SDS011;6175;50.956;11.064;2023-03-26T02:45:48;3.42;;;1.90;;
12224;SDS011;6175;50.956;11.064;2023-03-26T02:48:16;3.15;;;1.98;;
12224;SDS011;6175;50.956;11.064;2023-03-26T02:50:43;4.13;;;1.70;;
12224;SDS011;6175;50.956;11.064;2023-03-26T02:53:14;3.38;;;1.65;;
12224;SDS011;6175;50.956;11.064;2023-03-26T02:55:41;2.72;;;1.40;;
12224;SDS011;6175;50.956;11.064;2023-03-26T02:58:10;1.98;;;1.27;;
12224;SDS011;6175;50.956;11.064;2023-03-26T03:00:41;2.30;;;1.20;;
12224;SDS011;6175;50.956;11.064;2023-03-26T03:03:10;1.17;;;1.10;;
12224;SDS011;6175;50.956;11.064;2023-03-26T03:05:37;1.23;;;0.98;;
12224;SDS011;6175;50.956;11.064;2023-03-26T03:08:07;2.60;;;1.10;;
12224;SDS011;6175;50.956;11.064;2023-03-26T03:10:34;2.38;;;0.95;;
12224;SDS011;6175;50.956;11.064;2023-03-26T03:13:02;1.67;;;0.80;;
12224;SDS011;6175;50.956;11.064;2023-03-26T03:15:31;1.10;;;1.00;;
12224;SDS011;6175;50.956;11.064;2023-03-26T03:17:58;1.10;;;1.00;;
12224;SDS011;6175;50.956;11.064;2023-03-26T03:20:27;1.00;;;0.90;;
12224;SDS011;6175;50.956;11.064;2023-03-26T03:22:55;0.82;;;0.82;;
12224;SDS011;6175;50.956;11.064;2023-03-26T03:25:22;1.45;;;1.20;;
12224;SDS011;6175;50.956;11.064;2023-03-26T03:27:50;1.33;;;1.00;;
12224;SDS011;6175;50.956;11.064;2023-03-26T03:30:18;1.80;;;1.00;;
12224;SDS011;6175;50.956;11.064;2023-03-26T03:32:45;2.17;;;1.05;;
12224;SDS011;6175;50.956;11.064;2023-03-26T03:35:15;2.15;;;0.98;;
12224;SDS011;6175;50.956;11.064;2023-03-26T03:37:43;1.52;;;1.10;;
12224;SDS011;6175;50.956;11.064;2023-03-26T03:40:11;3.70;;;1.20;;
12224;SDS011;6175;50.956;11.064;2023-03-26T03:42:38;3.17;;;1.10;;
12224;SDS011;6175;50.956;11.064;2023-03-26T03:45:06;1.83;;;0.95;;
12224;SDS011;6175;50.956;11.064;2023-03-26T03:47:33;2.58;;;1.20;;
12224;SDS011;6175;50.956;11.064;2023-03-26T03:50:00;1.40;;;1.30;;
12224;SDS011;6175;50.956;11.064;2023-03-26T03:52:27;2.45;;;1.20;;
12224;SDS011;6175;50.956;11.064;2023-03-26T03:54:56;3.60;;;1.60;;
12224;SDS011;6175;50.956;11.064;2023-03-26T03:57:24;2.42;;;1.25;;
12224;SDS011;6175;50.956;11.064;2023-03-26T03:59:51;3.42;;;1.55;;
12224;SDS011;6175;50.956;11.064;2023-03-26T04:02:22;5.18;;;1.60;;
12224;SDS011;6175;50.956;11.064;2023-03-26T04:04:54;3.33;;;1.60;;
12224;SDS011;6175;50.956;11.064;2023-03-26T04:07:22;2.10;;;1.60;;
12224;SDS011;6175;50.956;11.064;2023-03-26T04:09:49;2.35;;;1.73;;
12224;SDS011;6175;50.956;11.064;2023-03-26T04:12:18;4.25;;;1.77;;
12224;SDS011;6175;50.956;11.064;2023-03-26T04:14:45;5.43;;;2.22;;
12224;SDS011;6175;50.956;11.064;2023-03-26T04:17:12;4.55;;;1.83;;
12224;SDS011;6175;50.956;11.064;2023-03-26T04:19:39;3.05;;;1.48;;
12224;SDS011;6175;50.956;11.064;2023-03-26T04:22:08;2.53;;;1.83;;
12224;SDS011;6175;50.956;11.064;2023-03-26T04:24:36;2.45;;;1.63;;
12224;SDS011;6175;50.956;11.064;2023-03-26T04:27:06;3.75;;;1.80;;
12224;SDS011;6175;50.956;11.064;2023-03-26T04:29:39;5.63;;;2.00;;
12224;SDS011;6175;50.956;11.064;2023-03-26T04:32:08;4.88;;;1.65;;
12224;SDS011;6175;50.956;11.064;2023-03-26T04:34:38;3.35;;;1.70;;
12224;SDS011;6175;50.956;11.064;2023-03-26T04:37:11;3.75;;;1.80;;
12224;SDS011;6175;50.956;11.064;2023-03-26T04:39:45;3.20;;;1.70;;
12224;SDS011;6175;50.956;11.064;2023-03-26T04:42:12;3.03;;;1.80;;
12224;SDS011;6175;50.956;11.064;2023-03-26T04:44:40;3.33;;;1.58;;
12224;SDS011;6175;50.956;11.064;2023-03-26T04:47:07;3.85;;;1.55;;
12224;SDS011;6175;50.956;11.064;2023-03-26T04:49:35;2.60;;;1.95;;
12224;SDS011;6175;50.956;11.064;2023-03-26T04:52:02;3.75;;;1.60;;
12224;SDS011;6175;50.956;11.064;2023-03-26T04:54:29;3.33;;;1.55;;
12224;SDS011;6175;50.956;11.064;2023-03-26T04:56:58;2.70;;;1.45;;
12224;SDS011;6175;50.956;11.064;2023-03-26T04:59:28;3.47;;;1.40;;
12224;SDS011;6175;50.956;11.064;2023-03-26T05:02:00;4.47;;;1.60;;
12224;SDS011;6175;50.956;11.064;2023-03-26T05:04:27;2.45;;;1.42;;
12224;SDS011;6175;50.956;11.064;2023-03-26T05:06:55;2.35;;;1.30;;
12224;SDS011;6175;50.956;11.064;2023-03-26T05:09:23;3.50;;;1.50;;
12224;SDS011;6175;50.956;11.064;2023-03-26T05:11:50;3.15;;;1.58;;
12224;SDS011;6175;50.956;11.064;2023-03-26T05:14:18;2.45;;;1.83;;
12224;SDS011;6175;50.956;11.064;2023-03-26T05:16:45;5.82;;;1.90;;
12224;SDS011;6175;50.956;11.064;2023-03-26T05:19:15;1.50;;;1.40;;
12224;SDS011;6175;50.956;11.064;2023-03-26T05:21:42;3.83;;;1.85;;
12224;SDS011;6175;50.956;11.064;2023-03-26T05:24:10;3.35;;;2.08;;
12224;SDS011;6175;50.956;11.064;2023-03-26T05:26:36;6.80;;;2.13;;
12224;SDS011;6175;50.956;11.064;2023-03-26T05:29:04;4.28;;;1.98;;
12224;SDS011;6175;50.956;11.064;2023-03-26T05:31:31;4.30;;;2.10;;
12224;SDS011;6175;50.956;11.064;2023-03-26T05:33:58;4.85;;;2.13;;
12224;SDS011;6175;50.956;11.064;2023-03-26T05:36:27;6.72;;;2.88;;
12224;SDS011;6175;50.956;11.064;2023-03-26T05:38:54;5.22;;;2.35;;
12224;SDS011;6175;50.956;11.064;2023-03-26T05:41:21;4.50;;;2.28;;
12224;SDS011;6175;50.956;11.064;2023-03-26T05:43:48;5.85;;;2.10;;
12224;SDS011;6175;50.956;11.064;2023-03-26T05:46:15;5.32;;;2.80;;
12224;SDS011;6175;50.956;11.064;2023-03-26T05:48:44;8.35;;;2.58;;
12224;SDS011;6175;50.956;11.064;2023-03-26T05:51:11;9.45;;;2.50;;
12224;SDS011;6175;50.956;11.064;2023-03-26T05:53:42;10.23;;;2.88;;
12224;SDS011;6175;50.956;11.064;2023-03-26T05:56:09;6.80;;;3.00;;
12224;SDS011;6175;50.956;11.064;2023-03-26T05:58:37;6.72;;;2.47;;
12224;SDS011;6175;50.956;11.064;2023-03-26T06:01:06;6.75;;;3.28;;
12224;SDS011;6175;50.956;11.064;2023-03-26T06:03:41;10.00;;;3.53;;
12224;SDS011;6175;50.956;11.064;2023-03-26T06:06:10;7.38;;;2.45;;
12224;SDS011;6175;50.956;11.064;2023-03-26T06:08:39;9.45;;;2.47;;
12224;SDS011;6175;50.956;11.064;2023-03-26T06:11:09;8.65;;;2.60;;
12224;SDS011;6175;50.956;11.064;2023-03-26T06:13:36;8.32;;;3.08;;
12224;SDS011;6175;50.956;11.064;2023-03-26T06:16:04;9.23;;;4.07;;
12224;SDS011;6175;50.956;11.064;2023-03-26T06:18:31;8.75;;;3.42;;
12224;SDS011;6175;50.956;11.064;2023-03-26T06:20:58;15.23;;;6.10;;
12224;SDS011;6175;50.956;11.064;2023-03-26T06:23:25;16.80;;;6.18;;
12224;SDS011;6175;50.956;11.064;2023-03-26T06:25:52;11.95;;;5.43;;
12224;SDS011;6175;50.956;11.064;2023-03-26T06:28:21;8.23;;;3.88;;
12224;SDS011;6175;50.956;11.064;2023-03-26T06:30:48;7.22;;;2.55;;
12224;SDS011;6175;50.956;11.064;2023-03-26T06:33:16;4.55;;;2.30;;
12224;SDS011;6175;50.956;11.064;2023-03-26T06:35:43;5.45;;;2.60;;
12224;SDS011;6175;50.956;11.064;2023-03-26T06:38:10;9.88;;;2.85;;
12224;SDS011;6175;50.956;11.064;2023-03-26T06:40:38;6.72;;;2.80;;
12224;SDS011;6175;50.956;11.064;2023-03-26T06:43:05;4.85;;;2.38;;
12224;SDS011;6175;50.956;11.064;2023-03-26T06:45:33;4.15;;;2.15;;
12224;SDS011;6175;50.956;11.064;2023-03-26T06:48:04;7.70;;;2.80;;
12224;SDS011;6175;50.956;11.064;2023-03-26T06:50:31;8.68;;;2.88;;
12224;SDS011;6175;50.956;11.064;2023-03-26T06:52:58;7.10;;;2.72;;
12224;SDS011;6175;50.956;11.064;2023-03-26T06:55:26;4.93;;;2.38;;
12224;SDS011;6175;50.956;11.064;2023-03-26T06:57:54;8.70;;;2.80;;
12224;SDS011;6175;50.956;11.064;2023-03-26T07:00:22;5.60;;;2.30;;
12224;SDS011;6175;50.956;11.064;2023-03-26T07:02:51;4.63;;;2.13;;
12224;SDS011;6175;50.956;11.064;2023-03-26T07:05:18;7.45;;;2.55;;
12224;SDS011;6175;50.956;11.064;2023-03-26T07:07:46;4.57;;;2.28;;
12224;SDS011;6175;50.956;11.064;2023-03-26T07:10:13;5.75;;;2.10;;
12224;SDS011;6175;50.956;11.064;2023-03-26T07:12:40;4.45;;;2.13;;
12224;SDS011;6175;50.956;11.064;2023-03-26T07:15:08;4.53;;;2.45;;
12224;SDS011;6175;50.956;11.064;2023-03-26T07:17:35;10.27;;;3.53;;
12224;SDS011;6175;50.956;11.064;2023-03-26T07:20:05;7.18;;;3.30;;
12224;SDS011;6175;50.956;11.064;2023-03-26T07:22:34;8.65;;;3.53;;
12224;SDS011;6175;50.956;11.064;2023-03-26T07:25:01;4.70;;;2.03;;
12224;SDS011;6175;50.956;11.064;2023-03-26T07:27:34;7.45;;;2.70;;
12224;SDS011;6175;50.956;11.064;2023-03-26T07:30:03;4.22;;;2.22;;
12224;SDS011;6175;50.956;11.064;2023-03-26T07:32:35;9.30;;;3.10;;
12224;SDS011;6175;50.956;11.064;2023-03-26T07:35:12;5.50;;;2.40;;
12224;SDS011;6175;50.956;11.064;2023-03-26T07:37:47;5.50;;;2.38;;
12224;SDS011;6175;50.956;11.064;2023-03-26T07:40:54;6.88;;;2.83;;
12224;SDS011;6175;50.956;11.064;2023-03-26T07:43:29;8.93;;;2.63;;
12224;SDS011;6175;50.956;11.064;2023-03-26T07:46:17;6.07;;;2.42;;
12224;SDS011;6175;50.956;11.064;2023-03-26T07:48:52;7.90;;;2.60;;
12224;SDS011;6175;50.956;11.064;2023-03-26T07:51:24;5.25;;;2.17;;
12224;SDS011;6175;50.956;11.064;2023-03-26T07:53:51;5.45;;;2.20;;
12224;SDS011;6175;50.956;11.064;2023-03-26T07:56:19;6.13;;;2.78;;
12224;SDS011;6175;50.956;11.064;2023-03-26T07:58:54;3.97;;;2.00;;
12224;SDS011;6175;50.956;11.064;2023-03-26T08:01:36;7.70;;;2.40;;
12224;SDS011;6175;50.956;11.064;2023-03-26T08:04:19;7.18;;;2.05;;
12224;SDS011;6175;50.956;11.064;2023-03-26T08:07:07;6.70;;;2.53;;
12224;SDS011;6175;50.956;11.064;2023-03-26T08:09:37;8.45;;;2.38;;
12224;SDS011;6175;50.956;11.064;2023-03-26T08:12:22;9.20;;;2.63;;
12224;SDS011;6175;50.956;11.064;2023-03-26T08:14:57;9.88;;;2.40;;
12224;SDS011;6175;50.956;11.064;2023-03-26T08:17:33;7.75;;;2.47;;
12224;SDS011;6175;50.956;11.064;2023-03-26T08:20:06;7.88;;;3.40;;
12224;SDS011;6175;50.956;11.064;2023-03-26T08:22:43;6.30;;;2.45;;
12224;SDS011;6175;50.956;11.064;2023-03-26T08:25:17;6.07;;;2.20;;
12224;SDS011;6175;50.956;11.064;2023-03-26T08:27:54;3.00;;;1.83;;
12224;SDS011;6175;50.956;11.064;2023-03-26T08:30:28;5.50;;;2.05;;
12224;SDS011;6175;50.956;11.064;2023-03-26T08:32:57;8.32;;;2.30;;
12224;SDS011;6175;50.956;11.064;2023-03-26T08:35:26;5.82;;;1.98;;
12224;SDS011;6175;50.956;11.064;2023-03-26T08:37:55;5.40;;;2.10;;
12224;SDS011;6175;50.956;11.064;2023-03-26T08:40:28;3.63;;;2.08;;
12224;SDS011;6175;50.956;11.064;2023-03-26T08:43:37;6.80;;;2.03;;
12224;SDS011;6175;50.956;11.064;2023-03-26T08:46:27;6.18;;;2.65;;
12224;SDS011;6175;50.956;11.064;2023-03-26T08:49:28;5.22;;;2.00;;
12224;SDS011;6175;50.956;11.064;2023-03-26T08:52:33;5.75;;;2.10;;
12224;SDS011;6175;50.956;11.064;2023-03-26T09:04:28;7.95;;;2.53;;
12224;SDS011;6175;50.956;11.064;2023-03-26T09:16:40;5.07;;;2.28;;
12224;SDS011;6175;50.956;11.064;2023-03-26T09:19:27;8.38;;;3.35;;
12224;SDS011;6175;50.956;11.064;2023-03-26T09:25:34;5.35;;;2.35;;
12224;SDS011;6175;50.956;11.064;2023-03-26T09:31:19;7.22;;;2.20;;
12224;SDS011;6175;50.956;11.064;2023-03-26T09:34:16;4.70;;;2.00;;
12224;SDS011;6175;50.956;11.064;2023-03-26T09:37:01;4.53;;;1.92;;
12224;SDS011;6175;50.956;11.064;2023-03-26T09:39:41;7.60;;;1.98;;
12224;SDS011;6175;50.956;11.064;2023-03-26T09:42:20;4.60;;;1.90;;
12224;SDS011;6175;50.956;11.064;2023-03-26T09:45:01;6.15;;;2.30;;
12224;SDS011;6175;50.956;11.064;2023-03-26T09:50:52;7.85;;;2.40;;
12224;SDS011;6175;50.956;11.064;2023-03-26T09:53:32;6.72;;;2.60;;
12224;SDS011;6175;50.956;11.064;2023-03-26T09:56:13;8.60;;;2.80;;
12224;SDS011;6175;50.956;11.064;2023-03-26T09:58:52;4.32;;;2.15;;
12224;SDS011;6175;50.956;11.064;2023-03-26T10:01:28;8.07;;;2.30;;
12224;SDS011;6175;50.956;11.064;2023-03-26T10:04:00;5.70;;;2.13;;
12224;SDS011;6175;50.956;11.064;2023-03-26T10:06:51;7.18;;;2.58;;
12224;SDS011;6175;50.956;11.064;2023-03-26T10:09:33;9.13;;;2.10;;
12224;SDS011;6175;50.956;11.064;2023-03-26T10:12:21;6.10;;;2.20;;
12224;SDS011;6175;50.956;11.064;2023-03-26T10:14:56;7.70;;;2.30;;
12224;SDS011;6175;50.956;11.064;2023-03-26T10:17:48;4.35;;;1.73;;
12224;SDS011;6175;50.956;11.064;2023-03-26T10:20:32;5.40;;;1.90;;
12224;SDS011;6175;50.956;11.064;2023-03-26T10:23:12;5.97;;;1.98;;
12224;SDS011;6175;50.956;11.064;2023-03-26T10:25:57;6.50;;;2.45;;
12224;SDS011;6175;50.956;11.064;2023-03-26T10:28:52;6.38;;;2.53;;
12224;SDS011;6175;50.956;11.064;2023-03-26T10:31:45;4.50;;;1.98;;
12224;SDS011;6175;50.956;11.064;2023-03-26T10:34:35;6.50;;;2.15;;
12224;SDS011;6175;50.956;11.064;2023-03-26T10:37:14;6.10;;;2.15;;
12224;SDS011;6175;50.956;11.064;2023-03-26T10:39:56;4.80;;;1.95;;
12224;SDS011;6175;50.956;11.064;2023-03-26T10:42:36;4.95;;;1.90;;
12224;SDS011;6175;50.956;11.064;2023-03-26T10:45:17;5.63;;;2.35;;
12224;SDS011;6175;50.956;11.064;2023-03-26T10:48:01;4.82;;;2.00;;
12224;SDS011;6175;50.956;11.064;2023-03-26T10:50:51;4.22;;;1.90;;
12224;SDS011;6175;50.956;11.064;2023-03-26T10:53:24;5.28;;;1.90;;
12224;SDS011;6175;50.956;11.064;2023-03-26T10:55:57;5.85;;;2.00;;
12224;SDS011;6175;50.956;11.064;2023-03-26T10:58:34;3.78;;;2.08;;
12224;SDS011;6175;50.956;11.064;2023-03-26T11:01:02;7.35;;;2.15;;
12224;SDS011;6175;50.956;11.064;2023-03-26T11:06:21;6.30;;;1.98;;
12224;SDS011;6175;50.956;11.064;2023-03-26T11:08:56;8.35;;;2.25;;
12224;SDS011;6175;50.956;11.064;2023-03-26T11:11:29;7.45;;;2.30;;
12224;SDS011;6175;50.956;11.064;2023-03-26T11:14:03;5.95;;;1.83;;
12224;SDS011;6175;50.956;11.064;2023-03-26T11:16:40;9.32;;;2.17;;
12224;SDS011;6175;50.956;11.064;2023-03-26T11:19:15;5.95;;;2.25;;
12224;SDS011;6175;50.956;11.064;2023-03-26T11:21:50;5.20;;;1.95;;
12224;SDS011;6175;50.956;11.064;2023-03-26T11:24:28;4.53;;;2.30;;
12224;SDS011;6175;50.956;11.064;2023-03-26T11:27:06;6.90;;;2.17;;
12224;SDS011;6175;50.956;11.064;2023-03-26T11:29:43;6.97;;;2.33;;
12224;SDS011;6175;50.956;11.064;2023-03-26T11:32:16;3.40;;;2.00;;
12224;SDS011;6175;50.956;11.064;2023-03-26T11:34:49;5.85;;;2.10;;
12224;SDS011;6175;50.956;11.064;2023-03-26T11:37:25;4.72;;;2.30;;
12224;SDS011;6175;50.956;11.064;2023-03-26T11:39:57;5.07;;;1.98;;
12224;SDS011;6175;50.956;11.064;2023-03-26T11:42:26;7.45;;;2.30;;
12224;SDS011;6175;50.956;11.064;2023-03-26T11:44:54;5.97;;;2.00;;
12224;SDS011;6175;50.956;11.064;2023-03-26T11:47:27;5.40;;;2.10;;
12224;SDS011;6175;50.956;11.064;2023-03-26T11:49:58;5.88;;;2.70;;
12224;SDS011;6175;50.956;11.064;2023-03-26T11:52:30;5.93;;;2.42;;
12224;SDS011;6175;50.956;11.064;2023-03-26T11:54:57;8.38;;;2.78;;
12224;SDS011;6175;50.956;11.064;2023-03-26T11:57:25;6.72;;;3.08;;
12224;SDS011;6175;50.956;11.064;2023-03-26T11:59:53;5.07;;;2.95;;
12224;SDS011;6175;50.956;11.064;2023-03-26T12:02:28;6.55;;;3.70;;
12224;SDS011;6175;50.956;11.064;2023-03-26T12:05:09;6.20;;;3.03;;
12224;SDS011;6175;50.956;11.064;2023-03-26T12:07:44;4.53;;;2.25;;
12224;SDS011;6175;50.956;11.064;2023-03-26T12:10:20;4.57;;;2.08;;
12224;SDS011;6175;50.956;11.064;2023-03-26T12:12:49;5.32;;;2.15;;
12224;SDS011;6175;50.956;11.064;2023-03-26T12:15:19;4.63;;;2.42;;
12224;SDS011;6175;50.956;11.064;2023-03-26T12:17:47;4.57;;;2.28;;
12224;SDS011;6175;50.956;11.064;2023-03-26T12:20:25;3.45;;;1.75;;
12224;SDS011;6175;50.956;11.064;2023-03-26T12:23:05;5.18;;;2.42;;
12224;SDS011;6175;50.956;11.064;2023-03-26T12:25:33;5.03;;;2.08;;
12224;SDS011;6175;50.956;11.064;2023-03-26T12:28:02;7.13;;;2.20;;
12224;SDS011;6175;50.956;11.064;2023-03-26T12:30:31;5.55;;;1.90;;
12224;SDS011;6175;50.956;11.064;2023-03-26T12:32:59;4.80;;;2.15;;
12224;SDS011;6175;50.956;11.064;2023-03-26T12:35:29;2.15;;;1.55;;
12224;SDS011;6175;50.956;11.064;2023-03-26T12:41:03;4.90;;;2.00;;
12224;SDS011;6175;50.956;11.064;2023-03-26T12:43:35;4.50;;;1.98;;
12224;SDS011;6175;50.956;11.064;2023-03-26T12:46:02;3.88;;;1.70;;
12224;SDS011;6175;50.956;11.064;2023-03-26T12:48:30;1.95;;;1.50;;
12224;SDS011;6175;50.956;11.064;2023-03-26T12:51:02;2.92;;;1.65;;
12224;SDS011;6175;50.956;11.064;2023-03-26T12:53:41;2.33;;;1.17;;
12224;SDS011;6175;50.956;11.064;2023-03-26T12:56:18;2.50;;;1.17;;
12224;SDS011;6175;50.956;11.064;2023-03-26T12:58:57;1.95;;;1.30;;
12224;SDS011;6175;50.956;11.064;2023-03-26T13:01:34;2.22;;;1.17;;
12224;SDS011;6175;50.956;11.064;2023-03-26T13:04:14;2.55;;;1.00;;
12224;SDS011;6175;50.956;11.064;2023-03-26T13:06:52;0.98;;;0.70;;
12224;SDS011;6175;50.956;11.064;2023-03-26T13:09:29;1.00;;;0.88;;
12224;SDS011;6175;50.956;11.064;2023-03-26T13:12:07;1.25;;;0.80;;
12224;SDS011;6175;50.956;11.064;2023-03-26T13:14:51;0.77;;;0.77;;
12224;SDS011;6175;50.956;11.064;2023-03-26T13:17:34;1.33;;;1.00;;
12224;SDS011;6175;50.956;11.064;2023-03-26T13:20:09;1.33;;;0.80;;
12224;SDS011;6175;50.956;11.064;2023-03-26T13:22:45;1.42;;;0.80;;
12224;SDS011;6175;50.956;11.064;2023-03-26T13:25:24;0.60;;;0.60;;
12224;SDS011;6175;50.956;11.064;2023-03-26T13:27:58;1.85;;;0.68;;
12224;SDS011;6175;50.956;11.064;2023-03-26T13:30:32;0.68;;;0.68;;
12224;SDS011;6175;50.956;11.064;2023-03-26T13:33:11;0.63;;;0.50;;
12224;SDS011;6175;50.956;11.064;2023-03-26T13:35:53;0.50;;;0.50;;
12224;SDS011;6175;50.956;11.064;2023-03-26T13:38:27;2.17;;;0.70;;
12224;SDS011;6175;50.956;11.064;2023-03-26T13:41:05;2.30;;;0.90;;
12224;SDS011;6175;50.956;11.064;2023-03-26T13:43:36;0.75;;;0.75;;
12224;SDS011;6175;50.956;11.064;2023-03-26T13:46:16;1.05;;;0.80;;
12224;SDS011;6175;50.956;11.064;2023-03-26T13:48:51;1.02;;;0.80;;
12224;SDS011;6175;50.956;11.064;2023-03-26T13:51:23;0.70;;;0.63;;
12224;SDS011;6175;50.956;11.064;2023-03-26T13:53:56;0.68;;;0.68;;
12224;SDS011;6175;50.956;11.064;2023-03-26T13:56:30;0.60;;;0.60;;
12224;SDS011;6175;50.956;11.064;2023-03-26T13:59:02;0.80;;;0.80;;
12224;SDS011;6175;50.956;11.064;2023-03-26T14:01:34;0.75;;;0.63;;
12224;SDS011;6175;50.956;11.064;2023-03-26T14:04:11;0.63;;;0.60;;
12224;SDS011;6175;50.956;11.064;2023-03-26T14:06:44;1.30;;;0.80;;
12224;SDS011;6175;50.956;11.064;2023-03-26T14:09:19;0.80;;;0.80;;
12224;SDS011;6175;50.956;11.064;2023-03-26T14:12:00;0.98;;;0.82;;
12224;SDS011;6175;50.956;11.064;2023-03-26T14:14:32;1.00;;;1.00;;
12224;SDS011;6175;50.956;11.064;2023-03-26T14:17:08;0.90;;;0.70;;
12224;SDS011;6175;50.956;11.064;2023-03-26T14:22:40;0.90;;;0.88;;
12224;SDS011;6175;50.956;11.064;2023-03-26T14:25:22;0.60;;;0.60;;
12224;SDS011;6175;50.956;11.064;2023-03-26T14:28:09;1.35;;;1.20;;
12224;SDS011;6175;50.956;11.064;2023-03-26T14:30:53;1.10;;;0.82;;
12224;SDS011;6175;50.956;11.064;2023-03-26T14:33:44;0.77;;;0.77;;
12224;SDS011;6175;50.956;11.064;2023-03-26T14:36:18;1.20;;;1.10;;
12224;SDS011;6175;50.956;11.064;2023-03-26T14:39:03;1.10;;;0.90;;
12224;SDS011;6175;50.956;11.064;2023-03-26T14:41:44;1.08;;;1.00;;
12224;SDS011;6175;50.956;11.064;2023-03-26T14:47:21;1.10;;;1.00;;
12224;SDS011;6175;50.956;11.064;2023-03-26T14:49:57;1.45;;;1.20;;
12224;SDS011;6175;50.956;11.064;2023-03-26T14:53:09;1.27;;;1.10;;
12224;SDS011;6175;50.956;11.064;2023-03-26T15:08:16;1.55;;;0.82;;
12224;SDS011;6175;50.956;11.064;2023-03-26T15:11:15;1.00;;;0.90;;
12224;SDS011;6175;50.956;11.064;2023-03-26T15:13:52;0.60;;;0.60;;
12224;SDS011;6175;50.956;11.064;2023-03-26T15:22:50;0.98;;;0.90;;
12224;SDS011;6175;50.956;11.064;2023-03-26T15:25:54;1.40;;;0.80;;
12224;SDS011;6175;50.956;11.064;2023-03-26T15:31:55;0.82;;;0.68;;
12224;SDS011;6175;50.956;11.064;2023-03-26T15:34:46;0.77;;;0.77;;
12224;SDS011;6175;50.956;11.064;2023-03-26T15:40:45;0.80;;;0.80;;
12224;SDS011;6175;50.956;11.064;2023-03-26T15:43:37;0.90;;;0.90;;
12224;SDS011;6175;50.956;11.064;2023-03-26T15:46:32;0.88;;;0.80;;
12224;SDS011;6175;50.956;11.064;2023-03-26T15:49:20;0.93;;;0.93;;
12224;SDS011;6175;50.956;11.064;2023-03-26T15:51:55;1.30;;;0.93;;
12224;SDS011;6175;50.956;11.064;2023-03-26T15:54:34;1.50;;;1.40;;
12224;SDS011;6175;50.956;11.064;2023-03-26T15:57:15;1.30;;;1.20;;
12224;SDS011;6175;50.956;11.064;2023-03-26T15:59:56;1.85;;;1.27;;
12224;SDS011;6175;50.956;11.064;2023-03-26T16:02:40;1.17;;;1.05;;
12224;SDS011;6175;50.956;11.064;2023-03-26T16:05:29;1.98;;;1.23;;
12224;SDS011;6175;50.956;11.064;2023-03-26T16:08:11;2.13;;;1.30;;
12224;SDS011;6175;50.956;11.064;2023-03-26T16:10:49;1.17;;;1.00;;
12224;SDS011;6175;50.956;11.064;2023-03-26T16:13:22;7.30;;;4.10;;
12224;SDS011;6175;50.956;11.064;2023-03-26T16:16:00;22.70;;;10.98;;
12224;SDS011;6175;50.956;11.064;2023-03-26T16:18:45;16.85;;;9.40;;
12224;SDS011;6175;50.956;11.064;2023-03-26T16:21:35;9.80;;;6.15;;
12224;SDS011;6175;50.956;11.064;2023-03-26T16:24:20;7.75;;;3.95;;
12224;SDS011;6175;50.956;11.064;2023-03-26T16:32:44;2.13;;;1.70;;
12224;SDS011;6175;50.956;11.064;2023-03-26T16:35:32;2.22;;;1.38;;
12224;SDS011;6175;50.956;11.064;2023-03-26T16:38:07;1.33;;;1.23;;